SSR6374 EDDK-LFLL
Flight info
| Callsign | SSR6374 |
|---|---|
| Flight time | N/A |
| Altitude | 35000 |
| Route | KUMIK4X KUMIK Y854 BOMBI/N0475F340 DCT GIGET DCT ABUKA/N0471F380 DCT KRH DCT NATOR/N0474F370 DCT LUTIX DCT BENOT N869 MILPA |
| Aircraft | B77L/H-SDE1E2E3FGHIJ2J3J4J5M1RWXY/LB1D1 |
Departure
| Time | 2026-05-04 11:36 |
|---|---|
| Airport | Cologne Bonn Airport (EDDK) |
Arrival
| Time | N/A |
|---|---|
| Airport | Lyon Saint-Exupéry Airport (LFLL) |
| Time | Latitude | Longitude | Altitude | Speed | Heading |
|---|---|---|---|---|---|
| 2026-05-04 11:24 | 50.87230 | 7.13283 | 237 ft | 0 kts | 227° |
| 2026-05-04 11:28 | 50.87240 | 7.13301 | 237 ft | 2 kts | 227° |
| 2026-05-04 11:28 | 50.87251 | 7.13320 | 237 ft | 2 kts | 227° |
| 2026-05-04 11:29 | 50.87262 | 7.13338 | 237 ft | 2 kts | 229° |
| 2026-05-04 11:29 | 50.87271 | 7.13361 | 237 ft | 3 kts | 257° |
| 2026-05-04 11:29 | 50.87273 | 7.13390 | 237 ft | 3 kts | 284° |
| 2026-05-04 11:29 | 50.87267 | 7.13416 | 238 ft | 3 kts | 296° |
| 2026-05-04 11:31 | 50.87255 | 7.13443 | 238 ft | 0 kts | 318° |
| 2026-05-04 11:33 | 50.87445 | 7.13169 | 237 ft | 17 kts | 317° |
| 2026-05-04 11:33 | 50.87541 | 7.13029 | 237 ft | 20 kts | 317° |
| 2026-05-04 11:33 | 50.87652 | 7.12867 | 237 ft | 24 kts | 317° |
| 2026-05-04 11:34 | 50.87736 | 7.12747 | 236 ft | 24 kts | 317° |
| 2026-05-04 11:34 | 50.87834 | 7.12625 | 236 ft | 15 kts | 338° |
| 2026-05-04 11:34 | 50.87936 | 7.12641 | 237 ft | 15 kts | 31° |
| 2026-05-04 11:34 | 50.87998 | 7.12774 | 241 ft | 15 kts | 70° |
| 2026-05-04 11:35 | 50.88010 | 7.12919 | 243 ft | 5 kts | 85° |
| 2026-05-04 11:35 | 50.88002 | 7.12968 | 243 ft | 5 kts | 127° |
| 2026-05-04 11:35 | 50.87982 | 7.13003 | 243 ft | 0 kts | 137° |
| 2026-05-04 11:35 | 50.87981 | 7.13004 | 243 ft | 0 kts | 137° |
| 2026-05-04 11:36 | 50.87978 | 7.13008 | 243 ft | 7 kts | 136° |
| 2026-05-04 11:36 | 50.87692 | 7.13422 | 243 ft | 111 kts | 137° |
| 2026-05-04 11:36 | 50.86884 | 7.14514 | 309 ft | 179 kts | 143° |
| 2026-05-04 11:36 | 50.85930 | 7.15801 | 967 ft | 180 kts | 137° |
| 2026-05-04 11:37 | 50.85126 | 7.17299 | 1737 ft | 183 kts | 132° |
| 2026-05-04 11:37 | 50.84167 | 7.18757 | 2215 ft | 198 kts | 140° |
| 2026-05-04 11:37 | 50.83107 | 7.20170 | 2871 ft | 201 kts | 140° |
| 2026-05-04 11:37 | 50.82128 | 7.21869 | 3425 ft | 219 kts | 126° |
| 2026-05-04 11:38 | 50.81377 | 7.24143 | 3771 ft | 247 kts | 111° |
| 2026-05-04 11:38 | 50.81001 | 7.26860 | 4399 ft | 261 kts | 98° |
| 2026-05-04 11:38 | 50.80785 | 7.29792 | 5157 ft | 274 kts | 98° |
| 2026-05-04 11:38 | 50.80562 | 7.32818 | 6036 ft | 280 kts | 98° |
| 2026-05-04 11:39 | 50.80337 | 7.35891 | 6991 ft | 282 kts | 98° |
| 2026-05-04 11:39 | 50.80093 | 7.38982 | 7854 ft | 285 kts | 99° |
| 2026-05-04 11:40 | 50.78399 | 7.59468 | 11273 ft | 375 kts | 93° |
| 2026-05-04 11:41 | 50.78679 | 7.63635 | 11957 ft | 388 kts | 81° |
| 2026-05-04 11:41 | 50.79204 | 7.67805 | 12907 ft | 394 kts | 80° |
| 2026-05-04 11:41 | 50.79739 | 7.72102 | 13921 ft | 400 kts | 81° |
| 2026-05-04 11:41 | 50.80261 | 7.76456 | 14807 ft | 405 kts | 81° |
| 2026-05-04 11:42 | 50.80772 | 7.80887 | 15648 ft | 412 kts | 82° |
| 2026-05-04 11:42 | 50.81280 | 7.85395 | 16489 ft | 419 kts | 82° |
| 2026-05-04 11:42 | 50.81784 | 7.89916 | 17304 ft | 425 kts | 82° |
| 2026-05-04 11:42 | 50.82299 | 7.94566 | 18159 ft | 431 kts | 82° |
| 2026-05-04 11:43 | 50.82758 | 7.99266 | 18780 ft | 433 kts | 89° |
| 2026-05-04 11:43 | 50.82430 | 8.03994 | 19314 ft | 434 kts | 110° |
| 2026-05-04 11:43 | 50.81163 | 8.08222 | 20072 ft | 430 kts | 127° |
| 2026-05-04 11:43 | 50.79246 | 8.11819 | 20881 ft | 427 kts | 142° |
| 2026-05-04 11:44 | 50.76834 | 8.14563 | 21515 ft | 427 kts | 150° |
| 2026-05-04 11:44 | 50.74297 | 8.17064 | 22105 ft | 434 kts | 152° |
| 2026-05-04 11:44 | 50.71700 | 8.19569 | 22841 ft | 438 kts | 152° |
| 2026-05-04 11:44 | 50.69095 | 8.22091 | 23600 ft | 441 kts | 152° |
| 2026-05-04 11:45 | 50.66504 | 8.24629 | 24200 ft | 445 kts | 152° |
| 2026-05-04 11:45 | 50.63872 | 8.27236 | 24804 ft | 448 kts | 152° |
| 2026-05-04 11:45 | 50.61223 | 8.29877 | 25428 ft | 451 kts | 152° |
| 2026-05-04 11:45 | 50.58563 | 8.32537 | 26047 ft | 454 kts | 152° |
| 2026-05-04 11:46 | 50.55880 | 8.35219 | 26629 ft | 457 kts | 152° |
| 2026-05-04 11:46 | 50.53183 | 8.37913 | 27202 ft | 461 kts | 152° |
| 2026-05-04 11:46 | 50.50462 | 8.40625 | 27769 ft | 465 kts | 152° |
| 2026-05-04 11:46 | 50.47723 | 8.43353 | 28309 ft | 468 kts | 152° |
| 2026-05-04 11:47 | 50.44994 | 8.46065 | 28828 ft | 471 kts | 152° |
| 2026-05-04 11:47 | 50.42208 | 8.48831 | 29311 ft | 474 kts | 152° |
| 2026-05-04 11:47 | 50.39404 | 8.51610 | 29783 ft | 477 kts | 152° |
| 2026-05-04 11:47 | 50.36561 | 8.54309 | 30267 ft | 476 kts | 155° |
| 2026-05-04 11:48 | 50.33655 | 8.56768 | 30778 ft | 475 kts | 156° |
| 2026-05-04 11:48 | 50.30734 | 8.59190 | 31321 ft | 473 kts | 156° |
| 2026-05-04 11:48 | 50.27862 | 8.61564 | 31852 ft | 472 kts | 156° |
| 2026-05-04 11:48 | 50.24953 | 8.63976 | 32348 ft | 472 kts | 157° |
| 2026-05-04 11:49 | 50.22057 | 8.66387 | 32832 ft | 471 kts | 156° |
| 2026-05-04 11:49 | 50.19164 | 8.68800 | 33337 ft | 471 kts | 157° |
| 2026-05-04 11:49 | 50.16273 | 8.71213 | 33829 ft | 470 kts | 157° |
| 2026-05-04 11:49 | 50.13394 | 8.73612 | 34246 ft | 469 kts | 157° |
| 2026-05-04 11:50 | 50.10513 | 8.76004 | 34619 ft | 468 kts | 158° |
| 2026-05-04 11:50 | 50.07531 | 8.77956 | 34886 ft | 463 kts | 168° |
| 2026-05-04 11:50 | 50.04381 | 8.78975 | 34947 ft | 461 kts | 178° |
| 2026-05-04 11:51 | 49.98105 | 8.78639 | 35000 ft | 449 kts | 192° |
| 2026-05-04 11:51 | 49.91968 | 8.77237 | 34989 ft | 446 kts | 192° |
| 2026-05-04 11:52 | 49.85827 | 8.75910 | 35001 ft | 445 kts | 191° |
| 2026-05-04 11:52 | 49.79684 | 8.74649 | 35010 ft | 445 kts | 191° |